sensor_id;sensor_type;location;lat;lon;timestamp;pressure;altitude;pressure_sealevel;temperature;humidity
50590;BME280;36547;50.514;30.840;2023-07-13T00:00:00;99900.43;;;19.45;60.26
50590;BME280;36547;50.514;30.840;2023-07-13T00:01:02;99907.80;;;19.43;60.59
50590;BME280;36547;50.514;30.840;2023-07-13T00:02:05;99902.41;;;19.43;60.27
50590;BME280;36547;50.514;30.840;2023-07-13T00:03:07;99898.73;;;19.44;60.22
50590;BME280;36547;50.514;30.840;2023-07-13T00:04:10;99898.02;;;19.42;60.27
50590;BME280;36547;50.514;30.840;2023-07-13T00:05:12;99904.12;;;19.44;60.29
50590;BME280;36547;50.514;30.840;2023-07-13T00:06:15;99905.25;;;19.41;60.15
50590;BME280;36547;50.514;30.840;2023-07-13T00:07:17;99908.08;;;19.40;60.00
50590;BME280;36547;50.514;30.840;2023-07-13T00:08:20;99895.87;;;19.36;60.18
50590;BME280;36547;50.514;30.840;2023-07-13T00:09:22;99899.15;;;19.30;60.27
50590;BME280;36547;50.514;30.840;2023-07-13T00:10:25;99898.71;;;19.25;60.50
50590;BME280;36547;50.514;30.840;2023-07-13T00:11:28;99887.93;;;19.25;60.76
50590;BME280;36547;50.514;30.840;2023-07-13T00:12:32;99882.54;;;19.25;60.82
50590;BME280;36547;50.514;30.840;2023-07-13T00:13:35;99891.61;;;19.24;61.63
50590;BME280;36547;50.514;30.840;2023-07-13T00:14:37;99876.44;;;19.23;61.18
50590;BME280;36547;50.514;30.840;2023-07-13T00:15:40;99876.30;;;19.24;61.18
50590;BME280;36547;50.514;30.840;2023-07-13T00:16:42;99881.97;;;19.21;61.20
50590;BME280;36547;50.514;30.840;2023-07-13T00:17:45;99878.55;;;19.19;61.32
50590;BME280;36547;50.514;30.840;2023-07-13T00:18:48;99878.55;;;19.19;61.44
50590;BME280;36547;50.514;30.840;2023-07-13T00:19:50;99875.18;;;19.17;61.50
50590;BME280;36547;50.514;30.840;2023-07-13T00:20:52;99878.28;;;19.13;61.73
50590;BME280;36547;50.514;30.840;2023-07-13T00:21:55;99874.02;;;19.10;61.84
50590;BME280;36547;50.514;30.840;2023-07-13T00:23:00;99872.73;;;19.04;62.09
50590;BME280;36547;50.514;30.840;2023-07-13T00:24:03;99873.03;;;19.01;62.12
50590;BME280;36547;50.514;30.840;2023-07-13T00:25:06;99872.32;;;18.99;62.15
50590;BME280;36547;50.514;30.840;2023-07-13T00:26:11;99864.52;;;18.96;62.26
50590;BME280;36547;50.514;30.840;2023-07-13T00:27:14;99865.50;;;18.95;62.42
50590;BME280;36547;50.514;30.840;2023-07-13T00:28:17;99861.95;;;18.95;62.65
50590;BME280;36547;50.514;30.840;2023-07-13T00:29:19;99857.69;;;18.92;62.66
50590;BME280;36547;50.514;30.840;2023-07-13T00:30:22;99862.36;;;18.90;62.71
50590;BME280;36547;50.514;30.840;2023-07-13T00:31:25;99856.43;;;18.87;62.85
50590;BME280;36547;50.514;30.840;2023-07-13T00:32:28;99852.03;;;18.86;62.87
50590;BME280;36547;50.514;30.840;2023-07-13T00:33:31;99855.13;;;18.81;63.08
50590;BME280;36547;50.514;30.840;2023-07-13T00:34:33;99857.24;;;18.78;63.23
50590;BME280;36547;50.514;30.840;2023-07-13T00:35:36;99846.78;;;18.75;63.21
50590;BME280;36547;50.514;30.840;2023-07-13T00:36:39;99843.64;;;18.69;63.47
50590;BME280;36547;50.514;30.840;2023-07-13T00:37:42;99847.31;;;18.68;63.58
50590;BME280;36547;50.514;30.840;2023-07-13T00:38:44;99844.77;;;18.67;63.72
50590;BME280;36547;50.514;30.840;2023-07-13T00:39:47;99840.77;;;18.61;64.01
50590;BME280;36547;50.514;30.840;2023-07-13T00:40:50;99837.39;;;18.59;64.10
50590;BME280;36547;50.514;30.840;2023-07-13T00:41:52;99841.07;;;18.58;64.23
50590;BME280;36547;50.514;30.840;2023-07-13T00:42:58;99839.47;;;18.56;64.47
50590;BME280;36547;50.514;30.840;2023-07-13T00:44:00;99834.09;;;18.56;64.52
50590;BME280;36547;50.514;30.840;2023-07-13T00:46:19;99833.84;;;18.59;64.43
50590;BME280;36547;50.514;30.840;2023-07-13T00:47:22;99831.39;;;18.56;64.47
50590;BME280;36547;50.514;30.840;2023-07-13T00:48:32;99827.98;;;18.54;64.65
50590;BME280;36547;50.514;30.840;2023-07-13T00:49:35;99831.66;;;18.53;64.80
50590;BME280;36547;50.514;30.840;2023-07-13T00:50:39;99834.63;;;18.50;64.83
50590;BME280;36547;50.514;30.840;2023-07-13T00:51:51;99832.06;;;18.48;64.96
50590;BME280;36547;50.514;30.840;2023-07-13T00:52:55;99833.05;;;18.47;64.90
50590;BME280;36547;50.514;30.840;2023-07-13T00:54:03;99830.52;;;18.46;64.88
50590;BME280;36547;50.514;30.840;2023-07-13T00:55:07;99828.10;;;18.43;64.91
50590;BME280;36547;50.514;30.840;2023-07-13T00:56:11;99831.06;;;18.40;65.10
50590;BME280;36547;50.514;30.840;2023-07-13T00:57:17;99831.78;;;18.42;65.03
50590;BME280;36547;50.514;30.840;2023-07-13T00:58:20;99835.32;;;18.42;65.05
50590;BME280;36547;50.514;30.840;2023-07-13T00:59:22;99825.68;;;18.40;65.07
50590;BME280;36547;50.514;30.840;2023-07-13T01:00:26;99839.85;;;18.42;65.12
50590;BME280;36547;50.514;30.840;2023-07-13T01:01:30;99829.36;;;18.38;65.17
50590;BME280;36547;50.514;30.840;2023-07-13T01:02:34;99829.48;;;18.37;65.27
50590;BME280;36547;50.514;30.840;2023-07-13T01:03:37;99827.92;;;18.34;65.37
50590;BME280;36547;50.514;30.840;2023-07-13T01:04:40;99838.68;;;18.34;65.51
50590;BME280;36547;50.514;30.840;2023-07-13T01:05:43;99826.21;;;18.33;65.46
50590;BME280;36547;50.514;30.840;2023-07-13T01:06:46;99830.74;;;18.33;65.54
50590;BME280;36547;50.514;30.840;2023-07-13T01:07:51;99829.89;;;18.32;65.56
50590;BME280;36547;50.514;30.840;2023-07-13T01:08:55;99830.74;;;18.33;65.59
50590;BME280;36547;50.514;30.840;2023-07-13T01:09:59;99828.22;;;18.31;65.63
50590;BME280;36547;50.514;30.840;2023-07-13T01:11:02;99823.52;;;18.33;65.66
50590;BME280;36547;50.514;30.840;2023-07-13T01:12:06;99821.81;;;18.32;65.70
50590;BME280;36547;50.514;30.840;2023-07-13T01:13:10;99827.78;;;18.36;65.57
50590;BME280;36547;50.514;30.840;2023-07-13T01:14:14;99821.55;;;18.35;65.62
50590;BME280;36547;50.514;30.840;2023-07-13T01:16:44;99823.52;;;18.33;65.69
50590;BME280;36547;50.514;30.840;2023-07-13T01:17:48;99820.83;;;18.33;65.77
50590;BME280;36547;50.514;30.840;2023-07-13T01:18:50;99821.69;;;18.34;65.64
50590;BME280;36547;50.514;30.840;2023-07-13T01:19:52;99819.13;;;18.32;65.53
50590;BME280;36547;50.514;30.840;2023-07-13T01:20:57;99820.83;;;18.33;65.63
50590;BME280;36547;50.514;30.840;2023-07-13T01:21:59;99822.84;;;18.31;65.72
50590;BME280;36547;50.514;30.840;2023-07-13T01:23:08;99818.57;;;18.29;65.82
50590;BME280;36547;50.514;30.840;2023-07-13T01:24:10;99823.10;;;18.28;65.82
50590;BME280;36547;50.514;30.840;2023-07-13T01:25:13;99820.41;;;18.28;65.74
50590;BME280;36547;50.514;30.840;2023-07-13T01:26:16;99820.41;;;18.28;65.84
50590;BME280;36547;50.514;30.840;2023-07-13T01:27:24;99827.63;;;18.28;65.84
50590;BME280;36547;50.514;30.840;2023-07-13T01:28:28;99815.03;;;18.28;65.77
50590;BME280;36547;50.514;30.840;2023-07-13T01:29:32;99818.84;;;18.26;65.83
50590;BME280;36547;50.514;30.840;2023-07-13T01:30:35;99820.55;;;18.27;65.71
50590;BME280;36547;50.514;30.840;2023-07-13T01:31:38;99808.34;;;18.23;65.89
50590;BME280;36547;50.514;30.840;2023-07-13T01:32:40;99816.41;;;18.23;65.95
50590;BME280;36547;50.514;30.840;2023-07-13T01:33:43;99818.52;;;18.19;66.08
50590;BME280;36547;50.514;30.840;2023-07-13T01:34:46;99818.52;;;18.19;66.09
50590;BME280;36547;50.514;30.840;2023-07-13T01:35:48;99819.38;;;18.20;65.97
50590;BME280;36547;50.514;30.840;2023-07-13T01:36:51;99815.83;;;18.19;66.05
50590;BME280;36547;50.514;30.840;2023-07-13T01:37:54;99817.66;;;18.19;66.18
50590;BME280;36547;50.514;30.840;2023-07-13T01:38:57;99809.77;;;18.17;66.10
50590;BME280;36547;50.514;30.840;2023-07-13T01:39:59;99816.13;;;18.16;66.22
50590;BME280;36547;50.514;30.840;2023-07-13T01:41:03;99817.11;;;18.15;66.19
50590;BME280;36547;50.514;30.840;2023-07-13T01:42:06;99819.08;;;18.13;66.18
50590;BME280;36547;50.514;30.840;2023-07-13T01:43:09;99813.11;;;18.10;66.38
50590;BME280;36547;50.514;30.840;2023-07-13T01:44:12;99817.51;;;18.11;66.43
50590;BME280;36547;50.514;30.840;2023-07-13T01:45:14;99818.36;;;18.11;66.53
50590;BME280;36547;50.514;30.840;2023-07-13T01:46:16;99822.89;;;18.11;66.53
50590;BME280;36547;50.514;30.840;2023-07-13T01:47:22;99824.59;;;18.12;66.63
50590;BME280;36547;50.514;30.840;2023-07-13T01:48:25;99826.69;;;18.08;66.67
50590;BME280;36547;50.514;30.840;2023-07-13T01:49:27;99817.64;;;18.09;66.68
50590;BME280;36547;50.514;30.840;2023-07-13T01:50:30;99824.72;;;18.10;66.68
50590;BME280;36547;50.514;30.840;2023-07-13T01:51:32;99819.61;;;18.07;66.76
50590;BME280;36547;50.514;30.840;2023-07-13T01:52:34;99819.88;;;18.04;66.85
50590;BME280;36547;50.514;30.840;2023-07-13T01:53:37;99827.09;;;18.03;66.97
50590;BME280;36547;50.514;30.840;2023-07-13T01:54:39;99825.55;;;18.01;67.02
50590;BME280;36547;50.514;30.840;2023-07-13T01:55:41;99824.69;;;18.00;67.07
50590;BME280;36547;50.514;30.840;2023-07-13T01:56:44;99819.31;;;18.00;67.10
50590;BME280;36547;50.514;30.840;2023-07-13T01:57:47;99818.46;;;18.00;67.09
50590;BME280;36547;50.514;30.840;2023-07-13T01:58:49;99822.98;;;17.99;67.16
50590;BME280;36547;50.514;30.840;2023-07-13T01:59:52;99813.34;;;17.97;67.22
50590;BME280;36547;50.514;30.840;2023-07-13T02:00:54;99814.20;;;17.97;67.19
50590;BME280;36547;50.514;30.840;2023-07-13T02:01:56;99812.63;;;17.95;67.38
50590;BME280;36547;50.514;30.840;2023-07-13T02:03:00;99820.09;;;17.91;67.45
50590;BME280;36547;50.514;30.840;2023-07-13T02:04:03;99805.11;;;17.89;67.45
50590;BME280;36547;50.514;30.840;2023-07-13T02:05:08;99816.00;;;17.87;67.71
50590;BME280;36547;50.514;30.840;2023-07-13T02:06:10;99815.41;;;17.84;67.73
50590;BME280;36547;50.514;30.840;2023-07-13T02:07:14;99819.20;;;17.81;67.87
50590;BME280;36547;50.514;30.840;2023-07-13T02:08:18;99816.39;;;17.83;67.75
50590;BME280;36547;50.514;30.840;2023-07-13T02:09:22;99815.67;;;17.81;67.77
50590;BME280;36547;50.514;30.840;2023-07-13T02:10:25;99814.95;;;17.79;67.82
50590;BME280;36547;50.514;30.840;2023-07-13T02:11:27;99814.95;;;17.79;67.91
50590;BME280;36547;50.514;30.840;2023-07-13T02:12:29;99820.19;;;17.80;67.69
50590;BME280;36547;50.514;30.840;2023-07-13T02:13:32;99823.73;;;17.81;67.58
50590;BME280;36547;50.514;30.840;2023-07-13T02:14:34;99821.05;;;17.81;67.59
50590;BME280;36547;50.514;30.840;2023-07-13T02:15:40;99818.48;;;17.79;67.68
50590;BME280;36547;50.514;30.840;2023-07-13T02:16:43;99822.03;;;17.80;67.63
50590;BME280;36547;50.514;30.840;2023-07-13T02:17:45;99818.48;;;17.79;67.72
50590;BME280;36547;50.514;30.840;2023-07-13T02:18:48;99816.52;;;17.81;67.61
50590;BME280;36547;50.514;30.840;2023-07-13T02:19:50;99814.69;;;17.82;67.66
50590;BME280;36547;50.514;30.840;2023-07-13T02:20:53;99817.24;;;17.83;67.57
50590;BME280;36547;50.514;30.840;2023-07-13T02:21:55;99827.14;;;17.83;67.66
50590;BME280;36547;50.514;30.840;2023-07-13T02:22:59;99820.06;;;17.82;67.71
50590;BME280;36547;50.514;30.840;2023-07-13T02:24:01;99819.20;;;17.81;67.78
50590;BME280;36547;50.514;30.840;2023-07-13T02:25:04;99815.67;;;17.81;67.78
50590;BME280;36547;50.514;30.840;2023-07-13T02:26:07;99808.45;;;17.81;67.78
50590;BME280;36547;50.514;30.840;2023-07-13T02:27:10;99810.29;;;17.81;67.81
50590;BME280;36547;50.514;30.840;2023-07-13T02:28:12;99813.97;;;17.80;67.83
50590;BME280;36547;50.514;30.840;2023-07-13T02:29:14;99813.23;;;17.78;67.85
50590;BME280;36547;50.514;30.840;2023-07-13T02:30:18;99813.23;;;17.78;67.88
50590;BME280;36547;50.514;30.840;2023-07-13T02:31:20;99814.22;;;17.77;67.90
50590;BME280;36547;50.514;30.840;2023-07-13T02:32:22;99816.78;;;17.78;67.75
50590;BME280;36547;50.514;30.840;2023-07-13T02:33:26;99813.23;;;17.78;67.81
50590;BME280;36547;50.514;30.840;2023-07-13T02:34:29;99810.42;;;17.79;67.79
50590;BME280;36547;50.514;30.840;2023-07-13T02:35:33;99818.36;;;17.81;67.62
50590;BME280;36547;50.514;30.840;2023-07-13T02:36:35;99813.11;;;17.79;67.66
50590;BME280;36547;50.514;30.840;2023-07-13T02:37:37;99807.60;;;17.81;67.64
50590;BME280;36547;50.514;30.840;2023-07-13T02:38:40;99804.78;;;17.82;67.46
50590;BME280;36547;50.514;30.840;2023-07-13T02:39:42;99801.38;;;17.80;67.62
50590;BME280;36547;50.514;30.840;2023-07-13T02:40:46;99804.78;;;17.82;67.54
50590;BME280;36547;50.514;30.840;2023-07-13T02:41:48;99802.95;;;17.83;67.25
50590;BME280;36547;50.514;30.840;2023-07-13T02:42:50;99805.64;;;17.83;67.25
50590;BME280;36547;50.514;30.840;2023-07-13T02:43:53;99800.39;;;17.81;67.40
50590;BME280;36547;50.514;30.840;2023-07-13T02:44:55;99795.14;;;17.80;67.43
50590;BME280;36547;50.514;30.840;2023-07-13T02:45:59;99798.55;;;17.82;67.51
50590;BME280;36547;50.514;30.840;2023-07-13T02:47:02;99805.64;;;17.83;67.30
50590;BME280;36547;50.514;30.840;2023-07-13T02:48:05;99805.89;;;17.80;67.52
50590;BME280;36547;50.514;30.840;2023-07-13T02:49:08;99809.30;;;17.82;67.24
50590;BME280;36547;50.514;30.840;2023-07-13T02:50:11;99811.02;;;17.83;67.09
50590;BME280;36547;50.514;30.840;2023-07-13T02:51:13;99808.45;;;17.81;67.19
50590;BME280;36547;50.514;30.840;2023-07-13T02:52:16;99814.69;;;17.82;66.97
50590;BME280;36547;50.514;30.840;2023-07-13T02:53:18;99816.13;;;17.86;66.95
50590;BME280;36547;50.514;30.840;2023-07-13T02:54:21;99824.92;;;17.88;66.99
50590;BME280;36547;50.514;30.840;2023-07-13T02:55:23;99817.54;;;17.90;66.81
50590;BME280;36547;50.514;30.840;2023-07-13T02:56:27;99816.56;;;17.91;66.81
50590;BME280;36547;50.514;30.840;2023-07-13T02:57:30;99813.73;;;17.92;66.80
50590;BME280;36547;50.514;30.840;2023-07-13T02:58:32;99812.63;;;17.95;66.80
50590;BME280;36547;50.514;30.840;2023-07-13T02:59:35;99816.16;;;17.95;66.85
50590;BME280;36547;50.514;30.840;2023-07-13T03:00:39;99808.82;;;17.97;66.67
50590;BME280;36547;50.514;30.840;2023-07-13T03:01:41;99810.39;;;18.00;66.81
50590;BME280;36547;50.514;30.840;2023-07-13T03:02:43;99814.78;;;18.01;66.81
50590;BME280;36547;50.514;30.840;2023-07-13T03:03:46;99810.27;;;18.01;66.69
50590;BME280;36547;50.514;30.840;2023-07-13T03:04:49;99816.20;;;18.05;66.59
50590;BME280;36547;50.514;30.840;2023-07-13T03:05:57;99804.45;;;18.06;66.50
50590;BME280;36547;50.514;30.840;2023-07-13T03:06:57;99810.55;;;18.08;66.42
50590;BME280;36547;50.514;30.840;2023-07-13T03:08:02;99808.59;;;18.10;66.46
50590;BME280;36547;50.514;30.840;2023-07-13T03:09:06;99809.30;;;18.12;66.40
50590;BME280;36547;50.514;30.840;2023-07-13T03:10:10;99808.32;;;18.13;66.09
50590;BME280;36547;50.514;30.840;2023-07-13T03:11:17;99811.02;;;18.13;66.25
50590;BME280;36547;50.514;30.840;2023-07-13T03:12:22;99809.17;;;18.14;66.27
50590;BME280;36547;50.514;30.840;2023-07-13T03:13:26;99810.02;;;18.14;66.20
50590;BME280;36547;50.514;30.840;2023-07-13T03:14:28;99804.64;;;18.14;66.16
50590;BME280;36547;50.514;30.840;2023-07-13T03:15:30;99809.04;;;18.15;66.27
50590;BME280;36547;50.514;30.840;2023-07-13T03:16:33;99806.05;;;18.18;66.24
50590;BME280;36547;50.514;30.840;2023-07-13T03:17:36;99810.45;;;18.19;66.19
50590;BME280;36547;50.514;30.840;2023-07-13T03:18:39;99805.06;;;18.19;66.22
50590;BME280;36547;50.514;30.840;2023-07-13T03:19:43;99808.74;;;18.18;66.23
50590;BME280;36547;50.514;30.840;2023-07-13T03:20:46;99807.76;;;18.19;66.19
50590;BME280;36547;50.514;30.840;2023-07-13T03:21:48;99799.69;;;18.19;66.25
50590;BME280;36547;50.514;30.840;2023-07-13T03:22:51;99806.05;;;18.18;66.17
50590;BME280;36547;50.514;30.840;2023-07-13T03:23:53;99805.23;;;18.18;66.06
50590;BME280;36547;50.514;30.840;2023-07-13T03:24:56;99806.05;;;18.18;66.20
50590;BME280;36547;50.514;30.840;2023-07-13T03:26:08;99799.69;;;18.19;66.08
50590;BME280;36547;50.514;30.840;2023-07-13T03:27:11;99803.09;;;18.21;66.09
50590;BME280;36547;50.514;30.840;2023-07-13T03:28:15;99806.50;;;18.23;66.22
50590;BME280;36547;50.514;30.840;2023-07-13T03:29:17;99809.20;;;18.23;66.02
50590;BME280;36547;50.514;30.840;2023-07-13T03:30:20;99815.43;;;18.24;66.15
50590;BME280;36547;50.514;30.840;2023-07-13T03:31:25;99809.20;;;18.23;66.27
50590;BME280;36547;50.514;30.840;2023-07-13T03:32:28;99804.67;;;18.24;66.08
50590;BME280;36547;50.514;30.840;2023-07-13T03:33:31;99809.20;;;18.23;66.42
50590;BME280;36547;50.514;30.840;2023-07-13T03:34:33;99817.13;;;18.25;66.31
50590;BME280;36547;50.514;30.840;2023-07-13T03:35:40;99812.61;;;18.25;66.57
50590;BME280;36547;50.514;30.840;2023-07-13T03:36:42;99809.91;;;18.25;66.38
50590;BME280;36547;50.514;30.840;2023-07-13T03:37:46;99809.91;;;18.25;66.38
50590;BME280;36547;50.514;30.840;2023-07-13T03:38:53;99812.34;;;18.28;66.21
50590;BME280;36547;50.514;30.840;2023-07-13T03:39:57;99814.05;;;18.29;66.26
50590;BME280;36547;50.514;30.840;2023-07-13T03:41:01;99808.66;;;18.29;66.40
50590;BME280;36547;50.514;30.840;2023-07-13T03:42:05;99805.13;;;18.29;66.23
50590;BME280;36547;50.514;30.840;2023-07-13T03:43:08;99804.13;;;18.30;66.33
50590;BME280;36547;50.514;30.840;2023-07-13T03:44:11;99808.36;;;18.32;66.17
50590;BME280;36547;50.514;30.840;2023-07-13T03:45:13;99806.39;;;18.34;66.05
50590;BME280;36547;50.514;30.840;2023-07-13T03:46:17;99811.77;;;18.34;66.16
50590;BME280;36547;50.514;30.840;2023-07-13T03:47:21;99806.39;;;18.34;66.12
50590;BME280;36547;50.514;30.840;2023-07-13T03:48:24;99810.66;;;18.37;66.24
50590;BME280;36547;50.514;30.840;2023-07-13T03:49:26;99813.21;;;18.38;66.40
50590;BME280;36547;50.514;30.840;2023-07-13T03:50:29;99805.86;;;18.41;65.99
50590;BME280;36547;50.514;30.840;2023-07-13T03:51:31;99809.27;;;18.43;66.17
50590;BME280;36547;50.514;30.840;2023-07-13T03:52:35;99806.58;;;18.43;66.23
50590;BME280;36547;50.514;30.840;2023-07-13T03:53:39;99807.29;;;18.45;66.09
50590;BME280;36547;50.514;30.840;2023-07-13T03:54:42;99809.00;;;18.46;66.14
50590;BME280;36547;50.514;30.840;2023-07-13T03:55:45;99803.45;;;18.47;66.12
50590;BME280;36547;50.514;30.840;2023-07-13T03:56:47;99803.31;;;18.49;65.80
50590;BME280;36547;50.514;30.840;2023-07-13T03:57:54;99808.70;;;18.49;65.94
50590;BME280;36547;50.514;30.840;2023-07-13T03:58:57;99798.78;;;18.49;66.03
50590;BME280;36547;50.514;30.840;2023-07-13T03:59:59;99799.63;;;18.50;66.22
50590;BME280;36547;50.514;30.840;2023-07-13T04:01:04;99795.95;;;18.51;66.08
50590;BME280;36547;50.514;30.840;2023-07-13T04:02:07;99798.52;;;18.52;66.03
50590;BME280;36547;50.514;30.840;2023-07-13T04:03:10;99801.06;;;18.54;66.09
50590;BME280;36547;50.514;30.840;2023-07-13T04:04:12;99802.77;;;18.55;66.11
50590;BME280;36547;50.514;30.840;2023-07-13T04:05:15;99806.19;;;18.57;66.12
50590;BME280;36547;50.514;30.840;2023-07-13T04:06:22;99804.23;;;18.59;66.09
50590;BME280;36547;50.514;30.840;2023-07-13T04:07:25;99801.41;;;18.60;66.22
50590;BME280;36547;50.514;30.840;2023-07-13T04:08:29;99811.02;;;18.63;66.35
50590;BME280;36547;50.514;30.840;2023-07-13T04:09:32;99807.20;;;18.65;65.82
50590;BME280;36547;50.514;30.840;2023-07-13T04:10:34;99816.14;;;18.66;65.48
50590;BME280;36547;50.514;30.840;2023-07-13T04:11:37;99817.70;;;18.68;65.83
50590;BME280;36547;50.514;30.840;2023-07-13T04:12:41;99811.20;;;18.71;66.14
50590;BME280;36547;50.514;30.840;2023-07-13T04:13:44;99806.53;;;18.73;66.03
50590;BME280;36547;50.514;30.840;2023-07-13T04:14:47;99814.30;;;18.76;66.08
50590;BME280;36547;50.514;30.840;2023-07-13T04:15:50;99800.56;;;18.79;66.15
50590;BME280;36547;50.514;30.840;2023-07-13T04:16:54;99818.15;;;18.83;65.97
50590;BME280;36547;50.514;30.840;2023-07-13T04:17:58;99817.87;;;18.86;65.80
50590;BME280;36547;50.514;30.840;2023-07-13T04:19:00;99814.20;;;18.87;65.71
50590;BME280;36547;50.514;30.840;2023-07-13T04:20:04;99819.27;;;18.90;65.74
50590;BME280;36547;50.514;30.840;2023-07-13T04:21:08;99820.98;;;18.91;65.74
50590;BME280;36547;50.514;30.840;2023-07-13T04:22:10;99817.02;;;18.95;65.66
50590;BME280;36547;50.514;30.840;2023-07-13T04:23:13;99815.05;;;18.97;65.68
50590;BME280;36547;50.514;30.840;2023-07-13T04:24:15;99819.44;;;18.98;65.60
50590;BME280;36547;50.514;30.840;2023-07-13T04:26:25;99808.23;;;19.13;65.87
50590;BME280;36547;50.514;30.840;2023-07-13T04:27:27;99807.94;;;19.06;65.66
50590;BME280;36547;50.514;30.840;2023-07-13T04:28:30;99808.52;;;19.10;65.54
50590;BME280;36547;50.514;30.840;2023-07-13T04:29:32;99809.95;;;19.14;65.64
50590;BME280;36547;50.514;30.840;2023-07-13T04:30:35;99809.66;;;19.17;65.56
50590;BME280;36547;50.514;30.840;2023-07-13T04:31:37;99804.81;;;19.20;65.35
50590;BME280;36547;50.514;30.840;2023-07-13T04:32:40;99803.55;;;19.24;64.75
50590;BME280;36547;50.514;30.840;2023-07-13T04:33:42;99798.73;;;19.28;64.53
50590;BME280;36547;50.514;30.840;2023-07-13T04:34:47;99799.98;;;19.33;64.62
50590;BME280;36547;50.514;30.840;2023-07-13T04:35:50;99804.95;;;19.38;63.93
50590;BME280;36547;50.514;30.840;2023-07-13T04:36:53;99796.44;;;19.42;64.25
50590;BME280;36547;50.514;30.840;2023-07-13T04:37:57;99797.02;;;19.46;64.09
50590;BME280;36547;50.514;30.840;2023-07-13T04:38:59;99801.13;;;19.50;63.76
50590;BME280;36547;50.514;30.840;2023-07-13T04:40:02;99799.00;;;19.54;63.46
50590;BME280;36547;50.514;30.840;2023-07-13T04:41:07;99798.58;;;19.58;63.38
50590;BME280;36547;50.514;30.840;2023-07-13T04:42:10;99792.90;;;19.61;63.29
50590;BME280;36547;50.514;30.840;2023-07-13T04:43:13;99794.28;;;19.65;63.14
50590;BME280;36547;50.514;30.840;2023-07-13T04:44:15;99793.00;;;19.69;63.09
50590;BME280;36547;50.514;30.840;2023-07-13T04:45:17;99798.81;;;19.74;63.21
50590;BME280;36547;50.514;30.840;2023-07-13T04:46:20;99792.25;;;19.77;63.21
50590;BME280;36547;50.514;30.840;2023-07-13T04:47:22;99791.83;;;19.82;62.74
50590;BME280;36547;50.514;30.840;2023-07-13T04:48:24;99793.23;;;19.86;62.98
50590;BME280;36547;50.514;30.840;2023-07-13T04:49:27;99790.25;;;19.89;62.61
50590;BME280;36547;50.514;30.840;2023-07-13T04:50:29;99796.03;;;19.94;62.27
50590;BME280;36547;50.514;30.840;2023-07-13T04:51:32;99798.44;;;19.97;62.12
50590;BME280;36547;50.514;30.840;2023-07-13T04:52:34;99800.70;;;20.01;61.89
50590;BME280;36547;50.514;30.840;2023-07-13T04:53:37;99797.55;;;20.06;62.05
50590;BME280;36547;50.514;30.840;2023-07-13T04:54:40;99803.50;;;20.09;62.14
50590;BME280;36547;50.514;30.840;2023-07-13T04:55:42;99814.86;;;20.13;61.73
50590;BME280;36547;50.514;30.840;2023-07-13T04:57:58;99809.38;;;20.32;61.57
50590;BME280;36547;50.514;30.840;2023-07-13T04:59:01;99817.06;;;20.27;61.48
50590;BME280;36547;50.514;30.840;2023-07-13T05:00:05;99815.77;;;20.31;61.47
50590;BME280;36547;50.514;30.840;2023-07-13T05:01:09;99805.38;;;20.36;61.04
50590;BME280;36547;50.514;30.840;2023-07-13T05:02:12;99816.74;;;20.40;60.98
50590;BME280;36547;50.514;30.840;2023-07-13T05:03:14;99820.84;;;20.44;61.23
50590;BME280;36547;50.514;30.840;2023-07-13T05:04:17;99817.85;;;20.47;61.34
50590;BME280;36547;50.514;30.840;2023-07-13T05:05:20;99820.08;;;20.52;61.17
50590;BME280;36547;50.514;30.840;2023-07-13T05:06:23;99826.19;;;20.54;60.45
50590;BME280;36547;50.514;30.840;2023-07-13T05:07:26;99836.39;;;20.60;60.77
50590;BME280;36547;50.514;30.840;2023-07-13T05:08:28;99824.27;;;20.64;60.75
50590;BME280;36547;50.514;30.840;2023-07-13T05:09:30;99835.47;;;20.69;60.64
50590;BME280;36547;50.514;30.840;2023-07-13T05:10:34;99830.48;;;20.74;59.91
50590;BME280;36547;50.514;30.840;2023-07-13T05:11:37;99821.89;;;20.78;59.75
50590;BME280;36547;50.514;30.840;2023-07-13T05:12:39;99822.45;;;20.82;59.70
50590;BME280;36547;50.514;30.840;2023-07-13T05:13:41;99823.84;;;20.86;59.54
50590;BME280;36547;50.514;30.840;2023-07-13T05:14:44;99821.70;;;20.90;59.64
50590;BME280;36547;50.514;30.840;2023-07-13T05:15:54;99831.17;;;20.94;59.85
50590;BME280;36547;50.514;30.840;2023-07-13T05:16:52;99827.02;;;20.99;59.66
50590;BME280;36547;50.514;30.840;2023-07-13T05:17:54;99823.72;;;21.05;59.70
50590;BME280;36547;50.514;30.840;2023-07-13T05:18:56;99825.08;;;21.09;59.49
50590;BME280;36547;50.514;30.840;2023-07-13T05:19:59;99821.08;;;21.13;59.90
50590;BME280;36547;50.514;30.840;2023-07-13T05:22:14;99822.65;;;21.34;59.31
50590;BME280;36547;50.514;30.840;2023-07-13T05:23:17;99828.67;;;21.28;58.54
50590;BME280;36547;50.514;30.840;2023-07-13T05:24:19;99830.06;;;21.32;58.71
50590;BME280;36547;50.514;30.840;2023-07-13T05:25:23;99825.17;;;21.35;59.02
50590;BME280;36547;50.514;30.840;2023-07-13T05:26:26;99831.27;;;21.37;59.13
50590;BME280;36547;50.514;30.840;2023-07-13T05:27:29;99823.70;;;21.41;59.58
50590;BME280;36547;50.514;30.840;2023-07-13T05:28:31;99828.81;;;21.44;59.89
50590;BME280;36547;50.514;30.840;2023-07-13T05:29:34;99816.98;;;21.45;58.99
50590;BME280;36547;50.514;30.840;2023-07-13T05:30:37;99824.80;;;21.48;58.63
50590;BME280;36547;50.514;30.840;2023-07-13T05:31:39;99819.05;;;21.51;57.83
50590;BME280;36547;50.514;30.840;2023-07-13T05:32:43;99813.33;;;21.54;58.46
50590;BME280;36547;50.514;30.840;2023-07-13T05:33:46;99814.72;;;21.58;58.30
50590;BME280;36547;50.514;30.840;2023-07-13T05:34:49;99818.81;;;21.62;57.69
50590;BME280;36547;50.514;30.840;2023-07-13T05:35:52;99813.76;;;21.67;57.55